sensor_id;sensor_type;location;lat;lon;timestamp;P1;durP1;ratioP1;P2;durP2;ratioP2
35518;SDS011;21627;48.216;16.482;2022-12-29T00:00:07;32.80;;;16.60;;
35518;SDS011;21627;48.216;16.482;2022-12-29T00:02:36;28.97;;;15.83;;
35518;SDS011;21627;48.216;16.482;2022-12-29T00:05:03;30.03;;;16.13;;
35518;SDS011;21627;48.216;16.482;2022-12-29T00:07:31;33.03;;;15.50;;
35518;SDS011;21627;48.216;16.482;2022-12-29T00:09:58;33.50;;;16.87;;
35518;SDS011;21627;48.216;16.482;2022-12-29T00:12:25;31.53;;;16.60;;
35518;SDS011;21627;48.216;16.482;2022-12-29T00:15:13;30.83;;;16.20;;
35518;SDS011;21627;48.216;16.482;2022-12-29T00:18:02;29.07;;;15.47;;
35518;SDS011;21627;48.216;16.482;2022-12-29T00:20:32;30.07;;;16.13;;
35518;SDS011;21627;48.216;16.482;2022-12-29T00:23:22;31.83;;;17.17;;
35518;SDS011;21627;48.216;16.482;2022-12-29T00:26:11;35.87;;;17.53;;
35518;SDS011;21627;48.216;16.482;2022-12-29T00:29:01;37.13;;;17.70;;
35518;SDS011;21627;48.216;16.482;2022-12-29T00:31:47;35.42;;;16.92;;
35518;SDS011;21627;48.216;16.482;2022-12-29T00:34:33;36.53;;;17.33;;
35518;SDS011;21627;48.216;16.482;2022-12-29T00:37:20;44.30;;;19.20;;
35518;SDS011;21627;48.216;16.482;2022-12-29T00:40:07;35.40;;;17.63;;
35518;SDS011;21627;48.216;16.482;2022-12-29T00:42:53;32.20;;;15.60;;
35518;SDS011;21627;48.216;16.482;2022-12-29T00:45:40;31.58;;;14.70;;
35518;SDS011;21627;48.216;16.482;2022-12-29T00:48:08;31.10;;;15.03;;
35518;SDS011;21627;48.216;16.482;2022-12-29T00:50:35;24.10;;;11.93;;
35518;SDS011;21627;48.216;16.482;2022-12-29T00:53:02;26.07;;;12.33;;
35518;SDS011;21627;48.216;16.482;2022-12-29T00:55:29;27.17;;;13.07;;
35518;SDS011;21627;48.216;16.482;2022-12-29T00:57:57;27.80;;;12.87;;
35518;SDS011;21627;48.216;16.482;2022-12-29T01:00:24;23.00;;;12.63;;
35518;SDS011;21627;48.216;16.482;2022-12-29T01:02:51;21.17;;;11.70;;
35518;SDS011;21627;48.216;16.482;2022-12-29T01:05:19;26.93;;;12.50;;
35518;SDS011;21627;48.216;16.482;2022-12-29T01:07:46;23.87;;;12.67;;
35518;SDS011;21627;48.216;16.482;2022-12-29T01:10:13;26.00;;;12.77;;
35518;SDS011;21627;48.216;16.482;2022-12-29T01:12:41;22.53;;;12.10;;
35518;SDS011;21627;48.216;16.482;2022-12-29T01:15:11;25.67;;;13.43;;
35518;SDS011;21627;48.216;16.482;2022-12-29T01:17:40;21.67;;;10.83;;
35518;SDS011;21627;48.216;16.482;2022-12-29T01:20:08;25.90;;;12.60;;
35518;SDS011;21627;48.216;16.482;2022-12-29T01:22:37;25.13;;;12.13;;
35518;SDS011;21627;48.216;16.482;2022-12-29T01:25:05;21.50;;;11.60;;
35518;SDS011;21627;48.216;16.482;2022-12-29T01:27:33;19.33;;;10.90;;
35518;SDS011;21627;48.216;16.482;2022-12-29T01:30:00;23.07;;;11.40;;
35518;SDS011;21627;48.216;16.482;2022-12-29T01:32:27;23.73;;;11.93;;
35518;SDS011;21627;48.216;16.482;2022-12-29T01:34:57;17.77;;;10.60;;
35518;SDS011;21627;48.216;16.482;2022-12-29T01:37:24;20.93;;;11.97;;
35518;SDS011;21627;48.216;16.482;2022-12-29T01:39:52;23.00;;;12.90;;
35518;SDS011;21627;48.216;16.482;2022-12-29T01:42:19;22.20;;;12.00;;
35518;SDS011;21627;48.216;16.482;2022-12-29T01:44:56;22.27;;;11.47;;
35518;SDS011;21627;48.216;16.482;2022-12-29T01:47:30;26.67;;;11.83;;
35518;SDS011;21627;48.216;16.482;2022-12-29T01:50:05;22.35;;;11.27;;
35518;SDS011;21627;48.216;16.482;2022-12-29T01:52:47;22.77;;;10.43;;
35518;SDS011;21627;48.216;16.482;2022-12-29T01:55:26;27.90;;;11.50;;
35518;SDS011;21627;48.216;16.482;2022-12-29T01:57:55;18.57;;;11.37;;
35518;SDS011;21627;48.216;16.482;2022-12-29T02:00:27;22.20;;;10.90;;
35518;SDS011;21627;48.216;16.482;2022-12-29T02:02:54;23.23;;;11.90;;
35518;SDS011;21627;48.216;16.482;2022-12-29T02:05:27;22.33;;;12.57;;
35518;SDS011;21627;48.216;16.482;2022-12-29T02:08:24;22.27;;;12.13;;
35518;SDS011;21627;48.216;16.482;2022-12-29T02:10:55;23.87;;;12.43;;
35518;SDS011;21627;48.216;16.482;2022-12-29T02:13:24;26.37;;;12.03;;
35518;SDS011;21627;48.216;16.482;2022-12-29T02:21:47;20.97;;;12.03;;
35518;SDS011;21627;48.216;16.482;2022-12-29T02:37:51;24.43;;;11.60;;
35518;SDS011;21627;48.216;16.482;2022-12-29T02:45:51;20.80;;;11.80;;
35518;SDS011;21627;48.216;16.482;2022-12-29T02:54:26;20.50;;;11.07;;
35518;SDS011;21627;48.216;16.482;2022-12-29T02:57:14;18.50;;;11.20;;
35518;SDS011;21627;48.216;16.482;2022-12-29T03:11:27;21.77;;;11.43;;
35518;SDS011;21627;48.216;16.482;2022-12-29T03:14:27;18.83;;;11.37;;
35518;SDS011;21627;48.216;16.482;2022-12-29T03:20:24;25.20;;;10.80;;
35518;SDS011;21627;48.216;16.482;2022-12-29T03:23:15;19.87;;;10.50;;
35518;SDS011;21627;48.216;16.482;2022-12-29T03:25:48;21.33;;;11.07;;
35518;SDS011;21627;48.216;16.482;2022-12-29T03:28:24;16.63;;;10.45;;
35518;SDS011;21627;48.216;16.482;2022-12-29T03:31:00;18.73;;;10.57;;
35518;SDS011;21627;48.216;16.482;2022-12-29T03:33:30;17.83;;;9.80;;
35518;SDS011;21627;48.216;16.482;2022-12-29T03:36:00;22.23;;;11.83;;
35518;SDS011;21627;48.216;16.482;2022-12-29T03:38:52;19.60;;;10.23;;
35518;SDS011;21627;48.216;16.482;2022-12-29T03:41:28;21.23;;;11.57;;
35518;SDS011;21627;48.216;16.482;2022-12-29T03:43:59;22.13;;;10.10;;
35518;SDS011;21627;48.216;16.482;2022-12-29T03:46:27;22.07;;;10.53;;
35518;SDS011;21627;48.216;16.482;2022-12-29T03:48:54;20.97;;;11.00;;
35518;SDS011;21627;48.216;16.482;2022-12-29T03:51:21;19.30;;;10.47;;
35518;SDS011;21627;48.216;16.482;2022-12-29T03:53:51;18.13;;;10.17;;
35518;SDS011;21627;48.216;16.482;2022-12-29T03:56:19;21.67;;;10.47;;
35518;SDS011;21627;48.216;16.482;2022-12-29T03:58:46;17.43;;;10.20;;
35518;SDS011;21627;48.216;16.482;2022-12-29T04:01:14;20.70;;;11.37;;
35518;SDS011;21627;48.216;16.482;2022-12-29T04:03:43;20.00;;;10.50;;
35518;SDS011;21627;48.216;16.482;2022-12-29T04:06:10;20.10;;;10.87;;
35518;SDS011;21627;48.216;16.482;2022-12-29T04:08:37;18.40;;;10.60;;
35518;SDS011;21627;48.216;16.482;2022-12-29T04:11:05;18.87;;;11.17;;
35518;SDS011;21627;48.216;16.482;2022-12-29T04:13:32;21.33;;;10.37;;
35518;SDS011;21627;48.216;16.482;2022-12-29T04:15:59;20.60;;;11.40;;
35518;SDS011;21627;48.216;16.482;2022-12-29T04:18:27;20.73;;;10.40;;
35518;SDS011;21627;48.216;16.482;2022-12-29T04:20:54;18.87;;;10.30;;
35518;SDS011;21627;48.216;16.482;2022-12-29T04:23:32;18.53;;;10.90;;
35518;SDS011;21627;48.216;16.482;2022-12-29T04:26:04;21.63;;;11.37;;
35518;SDS011;21627;48.216;16.482;2022-12-29T04:28:36;15.83;;;10.27;;
35518;SDS011;21627;48.216;16.482;2022-12-29T04:31:04;18.37;;;10.77;;
35518;SDS011;21627;48.216;16.482;2022-12-29T04:33:32;20.53;;;11.20;;
35518;SDS011;21627;48.216;16.482;2022-12-29T04:35:59;21.87;;;10.30;;
35518;SDS011;21627;48.216;16.482;2022-12-29T04:38:27;21.47;;;10.57;;
35518;SDS011;21627;48.216;16.482;2022-12-29T04:40:54;22.67;;;11.60;;
35518;SDS011;21627;48.216;16.482;2022-12-29T04:43:22;22.67;;;10.83;;
35518;SDS011;21627;48.216;16.482;2022-12-29T04:45:50;19.13;;;10.77;;
35518;SDS011;21627;48.216;16.482;2022-12-29T04:48:17;17.43;;;10.57;;
35518;SDS011;21627;48.216;16.482;2022-12-29T04:50:46;19.83;;;10.63;;
35518;SDS011;21627;48.216;16.482;2022-12-29T04:53:18;22.20;;;10.07;;
35518;SDS011;21627;48.216;16.482;2022-12-29T04:55:50;24.00;;;10.77;;
35518;SDS011;21627;48.216;16.482;2022-12-29T04:58:19;20.17;;;10.77;;
35518;SDS011;21627;48.216;16.482;2022-12-29T05:00:49;19.70;;;10.70;;
35518;SDS011;21627;48.216;16.482;2022-12-29T05:03:17;20.40;;;11.40;;
35518;SDS011;21627;48.216;16.482;2022-12-29T05:05:45;21.10;;;11.20;;
35518;SDS011;21627;48.216;16.482;2022-12-29T05:08:12;21.67;;;11.63;;
35518;SDS011;21627;48.216;16.482;2022-12-29T05:10:39;23.97;;;11.37;;
35518;SDS011;21627;48.216;16.482;2022-12-29T05:13:10;22.33;;;11.80;;
35518;SDS011;21627;48.216;16.482;2022-12-29T05:15:37;20.83;;;11.50;;
35518;SDS011;21627;48.216;16.482;2022-12-29T05:18:04;30.37;;;11.70;;
35518;SDS011;21627;48.216;16.482;2022-12-29T05:20:32;20.33;;;11.00;;
35518;SDS011;21627;48.216;16.482;2022-12-29T05:22:59;20.13;;;11.30;;
35518;SDS011;21627;48.216;16.482;2022-12-29T05:25:27;20.33;;;11.50;;
35518;SDS011;21627;48.216;16.482;2022-12-29T05:27:54;23.77;;;12.87;;
35518;SDS011;21627;48.216;16.482;2022-12-29T05:30:21;25.70;;;12.50;;
35518;SDS011;21627;48.216;16.482;2022-12-29T05:32:48;27.83;;;11.70;;
35518;SDS011;21627;48.216;16.482;2022-12-29T05:35:34;24.25;;;11.75;;
35518;SDS011;21627;48.216;16.482;2022-12-29T05:38:01;19.97;;;11.03;;
35518;SDS011;21627;48.216;16.482;2022-12-29T05:40:28;25.17;;;12.90;;
35518;SDS011;21627;48.216;16.482;2022-12-29T05:42:55;22.67;;;13.67;;
35518;SDS011;21627;48.216;16.482;2022-12-29T05:45:22;25.80;;;14.70;;
35518;SDS011;21627;48.216;16.482;2022-12-29T05:47:50;28.77;;;14.43;;
35518;SDS011;21627;48.216;16.482;2022-12-29T05:50:17;23.00;;;13.33;;
35518;SDS011;21627;48.216;16.482;2022-12-29T05:52:44;25.77;;;14.43;;
35518;SDS011;21627;48.216;16.482;2022-12-29T05:55:11;30.70;;;15.13;;
35518;SDS011;21627;48.216;16.482;2022-12-29T05:57:40;21.90;;;12.47;;
35518;SDS011;21627;48.216;16.482;2022-12-29T06:00:07;29.80;;;13.63;;
35518;SDS011;21627;48.216;16.482;2022-12-29T06:02:35;28.73;;;14.57;;
35518;SDS011;21627;48.216;16.482;2022-12-29T06:05:03;26.60;;;14.93;;
35518;SDS011;21627;48.216;16.482;2022-12-29T06:07:33;31.17;;;15.93;;
35518;SDS011;21627;48.216;16.482;2022-12-29T06:10:00;30.40;;;15.20;;
35518;SDS011;21627;48.216;16.482;2022-12-29T06:12:28;30.13;;;14.67;;
35518;SDS011;21627;48.216;16.482;2022-12-29T06:14:55;24.67;;;14.30;;
35518;SDS011;21627;48.216;16.482;2022-12-29T06:17:22;27.53;;;13.87;;
35518;SDS011;21627;48.216;16.482;2022-12-29T06:19:52;28.90;;;14.57;;
35518;SDS011;21627;48.216;16.482;2022-12-29T06:22:20;28.40;;;14.93;;
35518;SDS011;21627;48.216;16.482;2022-12-29T06:24:47;29.97;;;15.10;;
35518;SDS011;21627;48.216;16.482;2022-12-29T06:27:14;28.03;;;14.70;;
35518;SDS011;21627;48.216;16.482;2022-12-29T06:29:42;31.40;;;15.53;;
35518;SDS011;21627;48.216;16.482;2022-12-29T06:32:09;28.07;;;16.27;;
35518;SDS011;21627;48.216;16.482;2022-12-29T06:34:37;33.50;;;16.30;;
35518;SDS011;21627;48.216;16.482;2022-12-29T06:37:04;25.93;;;14.73;;
35518;SDS011;21627;48.216;16.482;2022-12-29T06:39:31;31.07;;;15.43;;
35518;SDS011;21627;48.216;16.482;2022-12-29T06:41:59;31.10;;;15.90;;
35518;SDS011;21627;48.216;16.482;2022-12-29T06:44:26;29.50;;;15.87;;
35518;SDS011;21627;48.216;16.482;2022-12-29T06:46:53;30.83;;;17.33;;
35518;SDS011;21627;48.216;16.482;2022-12-29T06:49:20;32.47;;;17.90;;
35518;SDS011;21627;48.216;16.482;2022-12-29T06:51:51;33.47;;;17.30;;
35518;SDS011;21627;48.216;16.482;2022-12-29T06:54:21;30.63;;;16.43;;
35518;SDS011;21627;48.216;16.482;2022-12-29T06:56:48;28.03;;;16.17;;
35518;SDS011;21627;48.216;16.482;2022-12-29T06:59:15;36.63;;;19.17;;
35518;SDS011;21627;48.216;16.482;2022-12-29T07:01:43;39.00;;;20.07;;
35518;SDS011;21627;48.216;16.482;2022-12-29T07:04:10;36.90;;;18.73;;
35518;SDS011;21627;48.216;16.482;2022-12-29T07:06:37;40.30;;;19.80;;
35518;SDS011;21627;48.216;16.482;2022-12-29T07:09:04;42.80;;;17.70;;
35518;SDS011;21627;48.216;16.482;2022-12-29T07:11:32;41.30;;;20.40;;
35518;SDS011;21627;48.216;16.482;2022-12-29T07:13:59;34.17;;;18.87;;
35518;SDS011;21627;48.216;16.482;2022-12-29T07:16:31;35.47;;;19.50;;
35518;SDS011;21627;48.216;16.482;2022-12-29T07:18:59;42.53;;;20.87;;
35518;SDS011;21627;48.216;16.482;2022-12-29T07:21:26;38.83;;;18.87;;
35518;SDS011;21627;48.216;16.482;2022-12-29T07:23:53;32.93;;;18.13;;
35518;SDS011;21627;48.216;16.482;2022-12-29T07:26:21;34.70;;;17.43;;
35518;SDS011;21627;48.216;16.482;2022-12-29T07:28:49;35.20;;;16.00;;
35518;SDS011;21627;48.216;16.482;2022-12-29T07:31:17;35.10;;;17.33;;
35518;SDS011;21627;48.216;16.482;2022-12-29T07:33:47;31.57;;;16.20;;
35518;SDS011;21627;48.216;16.482;2022-12-29T07:36:15;36.67;;;17.57;;
35518;SDS011;21627;48.216;16.482;2022-12-29T07:38:42;39.77;;;17.67;;
35518;SDS011;21627;48.216;16.482;2022-12-29T07:41:10;38.60;;;19.53;;
35518;SDS011;21627;48.216;16.482;2022-12-29T07:43:37;38.47;;;18.87;;
35518;SDS011;21627;48.216;16.482;2022-12-29T07:46:04;37.23;;;18.90;;
35518;SDS011;21627;48.216;16.482;2022-12-29T07:48:31;38.13;;;19.63;;
35518;SDS011;21627;48.216;16.482;2022-12-29T07:51:02;42.17;;;20.80;;
35518;SDS011;21627;48.216;16.482;2022-12-29T07:53:29;42.97;;;20.73;;
35518;SDS011;21627;48.216;16.482;2022-12-29T07:55:56;40.20;;;19.67;;
35518;SDS011;21627;48.216;16.482;2022-12-29T07:58:23;43.40;;;21.93;;
35518;SDS011;21627;48.216;16.482;2022-12-29T08:00:57;43.10;;;22.60;;
35518;SDS011;21627;48.216;16.482;2022-12-29T08:03:24;45.63;;;21.93;;
35518;SDS011;21627;48.216;16.482;2022-12-29T08:05:52;44.50;;;20.73;;
35518;SDS011;21627;48.216;16.482;2022-12-29T08:08:19;47.13;;;22.27;;
35518;SDS011;21627;48.216;16.482;2022-12-29T08:10:47;43.47;;;22.73;;
35518;SDS011;21627;48.216;16.482;2022-12-29T08:13:14;45.53;;;22.40;;
35518;SDS011;21627;48.216;16.482;2022-12-29T08:15:42;46.50;;;22.13;;
35518;SDS011;21627;48.216;16.482;2022-12-29T08:18:09;47.63;;;23.37;;
35518;SDS011;21627;48.216;16.482;2022-12-29T08:20:36;40.87;;;21.60;;
35518;SDS011;21627;48.216;16.482;2022-12-29T08:23:03;45.53;;;23.27;;
35518;SDS011;21627;48.216;16.482;2022-12-29T08:25:30;51.40;;;24.37;;
35518;SDS011;21627;48.216;16.482;2022-12-29T08:27:57;54.77;;;25.47;;
35518;SDS011;21627;48.216;16.482;2022-12-29T08:30:25;48.80;;;25.43;;
35518;SDS011;21627;48.216;16.482;2022-12-29T08:32:52;49.90;;;24.27;;
35518;SDS011;21627;48.216;16.482;2022-12-29T08:35:19;41.40;;;22.90;;
35518;SDS011;21627;48.216;16.482;2022-12-29T08:37:46;55.03;;;24.70;;
35518;SDS011;21627;48.216;16.482;2022-12-29T08:40:13;47.03;;;23.43;;
35518;SDS011;21627;48.216;16.482;2022-12-29T08:42:41;56.53;;;25.33;;
35518;SDS011;21627;48.216;16.482;2022-12-29T08:45:08;44.53;;;23.60;;
35518;SDS011;21627;48.216;16.482;2022-12-29T08:47:36;51.47;;;23.20;;
35518;SDS011;21627;48.216;16.482;2022-12-29T08:50:03;53.87;;;23.80;;
35518;SDS011;21627;48.216;16.482;2022-12-29T08:52:31;47.73;;;23.83;;
35518;SDS011;21627;48.216;16.482;2022-12-29T08:54:58;47.90;;;23.83;;
35518;SDS011;21627;48.216;16.482;2022-12-29T08:57:25;48.77;;;22.83;;
35518;SDS011;21627;48.216;16.482;2022-12-29T08:59:52;51.57;;;24.07;;
35518;SDS011;21627;48.216;16.482;2022-12-29T09:02:20;52.33;;;23.27;;
35518;SDS011;21627;48.216;16.482;2022-12-29T09:04:50;48.70;;;23.60;;
35518;SDS011;21627;48.216;16.482;2022-12-29T09:07:18;56.73;;;25.63;;
35518;SDS011;21627;48.216;16.482;2022-12-29T09:09:45;53.73;;;23.80;;
35518;SDS011;21627;48.216;16.482;2022-12-29T09:12:12;58.87;;;24.40;;
35518;SDS011;21627;48.216;16.482;2022-12-29T09:14:39;49.80;;;25.23;;
35518;SDS011;21627;48.216;16.482;2022-12-29T09:17:06;54.27;;;23.87;;
35518;SDS011;21627;48.216;16.482;2022-12-29T09:19:52;50.35;;;24.70;;
35518;SDS011;21627;48.216;16.482;2022-12-29T09:22:20;45.67;;;23.47;;
35518;SDS011;21627;48.216;16.482;2022-12-29T09:24:47;50.27;;;24.87;;
35518;SDS011;21627;48.216;16.482;2022-12-29T09:27:14;46.93;;;25.20;;
35518;SDS011;21627;48.216;16.482;2022-12-29T09:29:41;52.83;;;25.13;;
35518;SDS011;21627;48.216;16.482;2022-12-29T09:32:08;58.47;;;24.97;;
35518;SDS011;21627;48.216;16.482;2022-12-29T09:34:43;58.92;;;27.17;;
35518;SDS011;21627;48.216;16.482;2022-12-29T09:37:11;48.10;;;25.33;;
35518;SDS011;21627;48.216;16.482;2022-12-29T09:39:38;57.97;;;27.07;;
35518;SDS011;21627;48.216;16.482;2022-12-29T09:47:31;64.03;;;28.10;;
35518;SDS011;21627;48.216;16.482;2022-12-29T09:52:40;62.10;;;28.80;;
35518;SDS011;21627;48.216;16.482;2022-12-29T09:55:27;50.30;;;25.90;;
35518;SDS011;21627;48.216;16.482;2022-12-29T09:58:15;65.60;;;27.70;;
35518;SDS011;21627;48.216;16.482;2022-12-29T10:01:04;51.10;;;25.30;;
35518;SDS011;21627;48.216;16.482;2022-12-29T10:03:48;59.93;;;28.80;;
35518;SDS011;21627;48.216;16.482;2022-12-29T10:06:33;62.40;;;27.20;;
35518;SDS011;21627;48.216;16.482;2022-12-29T10:09:53;57.23;;;27.37;;
35518;SDS011;21627;48.216;16.482;2022-12-29T10:25:17;54.70;;;28.40;;
35518;SDS011;21627;48.216;16.482;2022-12-29T10:27:53;57.07;;;29.13;;
35518;SDS011;21627;48.216;16.482;2022-12-29T10:30:25;57.30;;;27.10;;
35518;SDS011;21627;48.216;16.482;2022-12-29T10:32:54;59.93;;;29.27;;
35518;SDS011;21627;48.216;16.482;2022-12-29T10:35:32;58.53;;;28.00;;
35518;SDS011;21627;48.216;16.482;2022-12-29T10:41:03;56.03;;;28.33;;
35518;SDS011;21627;48.216;16.482;2022-12-29T10:46:24;57.63;;;28.10;;
35518;SDS011;21627;48.216;16.482;2022-12-29T10:48:57;53.27;;;26.20;;
35518;SDS011;21627;48.216;16.482;2022-12-29T10:51:25;49.00;;;26.10;;
35518;SDS011;21627;48.216;16.482;2022-12-29T10:53:58;54.33;;;28.10;;
35518;SDS011;21627;48.216;16.482;2022-12-29T10:56:38;49.10;;;25.60;;
35518;SDS011;21627;48.216;16.482;2022-12-29T10:59:16;50.20;;;25.95;;
35518;SDS011;21627;48.216;16.482;2022-12-29T11:07:38;51.93;;;26.17;;
35518;SDS011;21627;48.216;16.482;2022-12-29T11:10:16;57.87;;;26.37;;
35518;SDS011;21627;48.216;16.482;2022-12-29T11:13:11;59.37;;;26.97;;
35518;SDS011;21627;48.216;16.482;2022-12-29T11:15:45;50.10;;;25.50;;
35518;SDS011;21627;48.216;16.482;2022-12-29T11:20:58;52.77;;;27.20;;
35518;SDS011;21627;48.216;16.482;2022-12-29T11:28:37;49.10;;;25.23;;
35518;SDS011;21627;48.216;16.482;2022-12-29T11:31:06;51.43;;;26.30;;
35518;SDS011;21627;48.216;16.482;2022-12-29T11:33:35;57.30;;;26.87;;
35518;SDS011;21627;48.216;16.482;2022-12-29T11:38:39;55.30;;;26.43;;
35518;SDS011;21627;48.216;16.482;2022-12-29T11:43:46;57.17;;;25.37;;
35518;SDS011;21627;48.216;16.482;2022-12-29T11:46:15;50.53;;;25.40;;
35518;SDS011;21627;48.216;16.482;2022-12-29T11:48:56;52.60;;;26.13;;
35518;SDS011;21627;48.216;16.482;2022-12-29T11:51:30;56.33;;;25.83;;
35518;SDS011;21627;48.216;16.482;2022-12-29T11:54:11;52.20;;;24.57;;
35518;SDS011;21627;48.216;16.482;2022-12-29T11:56:58;47.23;;;24.33;;
35518;SDS011;21627;48.216;16.482;2022-12-29T11:59:43;51.43;;;24.93;;
35518;SDS011;21627;48.216;16.482;2022-12-29T12:08:05;48.73;;;23.87;;
35518;SDS011;21627;48.216;16.482;2022-12-29T12:13:58;45.00;;;23.93;;
35518;SDS011;21627;48.216;16.482;2022-12-29T12:16:46;44.17;;;25.07;;
35518;SDS011;21627;48.216;16.482;2022-12-29T12:19:33;46.97;;;23.57;;
35518;SDS011;21627;48.216;16.482;2022-12-29T12:24:48;50.67;;;24.27;;
35518;SDS011;21627;48.216;16.482;2022-12-29T12:47:41;42.83;;;23.30;;
35518;SDS011;21627;48.216;16.482;2022-12-29T12:50:40;42.83;;;22.33;;
35518;SDS011;21627;48.216;16.482;2022-12-29T12:57:11;43.33;;;23.97;;
35518;SDS011;21627;48.216;16.482;2022-12-29T13:00:16;42.65;;;24.13;;
35518;SDS011;21627;48.216;16.482;2022-12-29T13:06:01;43.57;;;22.67;;
35518;SDS011;21627;48.216;16.482;2022-12-29T13:22:23;41.07;;;23.50;;
35518;SDS011;21627;48.216;16.482;2022-12-29T13:30:43;40.30;;;23.60;;
35518;SDS011;21627;48.216;16.482;2022-12-29T13:36:23;41.47;;;22.80;;
35518;SDS011;21627;48.216;16.482;2022-12-29T13:39:08;43.92;;;22.23;;
35518;SDS011;21627;48.216;16.482;2022-12-29T13:41:51;40.00;;;21.90;;
35518;SDS011;21627;48.216;16.482;2022-12-29T13:44:32;39.60;;;21.57;;
35518;SDS011;21627;48.216;16.482;2022-12-29T13:49:45;35.07;;;21.67;;
35518;SDS011;21627;48.216;16.482;2022-12-29T13:58:14;40.20;;;22.70;;
35518;SDS011;21627;48.216;16.482;2022-12-29T14:03:57;43.27;;;24.43;;
35518;SDS011;21627;48.216;16.482;2022-12-29T14:09:05;50.75;;;25.17;;
35518;SDS011;21627;48.216;16.482;2022-12-29T14:12:00;50.05;;;24.33;;
35518;SDS011;21627;48.216;16.482;2022-12-29T14:14:28;48.77;;;25.07;;
35518;SDS011;21627;48.216;16.482;2022-12-29T14:17:10;54.23;;;26.27;;
35518;SDS011;21627;48.216;16.482;2022-12-29T14:19:41;53.63;;;26.20;;
35518;SDS011;21627;48.216;16.482;2022-12-29T14:22:11;51.67;;;25.47;;
35518;SDS011;21627;48.216;16.482;2022-12-29T14:24:40;52.97;;;25.37;;
35518;SDS011;21627;48.216;16.482;2022-12-29T14:34:58;53.85;;;26.92;;
35518;SDS011;21627;48.216;16.482;2022-12-29T14:37:47;53.97;;;27.17;;
35518;SDS011;21627;48.216;16.482;2022-12-29T14:40:31;62.07;;;28.17;;
35518;SDS011;21627;48.216;16.482;2022-12-29T14:43:00;55.90;;;28.10;;
35518;SDS011;21627;48.216;16.482;2022-12-29T14:45:28;56.93;;;29.03;;
35518;SDS011;21627;48.216;16.482;2022-12-29T14:47:59;49.63;;;26.13;;
35518;SDS011;21627;48.216;16.482;2022-12-29T14:56:12;60.10;;;29.80;;
35518;SDS011;21627;48.216;16.482;2022-12-29T14:58:53;59.17;;;29.33;;
35518;SDS011;21627;48.216;16.482;2022-12-29T15:01:45;63.90;;;29.13;;
35518;SDS011;21627;48.216;16.482;2022-12-29T15:04:18;64.27;;;29.37;;
35518;SDS011;21627;48.216;16.482;2022-12-29T15:06:50;52.30;;;26.60;;
35518;SDS011;21627;48.216;16.482;2022-12-29T15:09:30;59.07;;;27.80;;
35518;SDS011;21627;48.216;16.482;2022-12-29T15:14:56;58.17;;;28.40;;
35518;SDS011;21627;48.216;16.482;2022-12-29T15:17:29;55.97;;;28.77;;
35518;SDS011;21627;48.216;16.482;2022-12-29T15:20:33;55.83;;;26.70;;
35518;SDS011;21627;48.216;16.482;2022-12-29T15:22:58;58.27;;;28.07;;
35518;SDS011;21627;48.216;16.482;2022-12-29T15:25:34;64.37;;;29.13;;
35518;SDS011;21627;48.216;16.482;2022-12-29T15:28:03;55.20;;;26.90;;
35518;SDS011;21627;48.216;16.482;2022-12-29T15:30:33;60.53;;;28.10;;
35518;SDS011;21627;48.216;16.482;2022-12-29T15:33:00;60.67;;;29.57;;
35518;SDS011;21627;48.216;16.482;2022-12-29T15:35:33;59.03;;;29.30;;
35518;SDS011;21627;48.216;16.482;2022-12-29T15:38:13;59.03;;;29.15;;
35518;SDS011;21627;48.216;16.482;2022-12-29T15:40:43;61.83;;;29.03;;
35518;SDS011;21627;48.216;16.482;2022-12-29T15:46:24;59.07;;;28.27;;
35518;SDS011;21627;48.216;16.482;2022-12-29T15:48:53;59.43;;;28.53;;
35518;SDS011;21627;48.216;16.482;2022-12-29T15:51:25;62.97;;;30.73;;
35518;SDS011;21627;48.216;16.482;2022-12-29T15:53:59;58.67;;;29.47;;
35518;SDS011;21627;48.216;16.482;2022-12-29T15:56:30;64.07;;;31.23;;
35518;SDS011;21627;48.216;16.482;2022-12-29T15:58:59;65.80;;;32.80;;
35518;SDS011;21627;48.216;16.482;2022-12-29T16:01:28;64.33;;;30.90;;
35518;SDS011;21627;48.216;16.482;2022-12-29T16:03:59;65.00;;;32.70;;
35518;SDS011;21627;48.216;16.482;2022-12-29T16:06:37;66.03;;;31.80;;
35518;SDS011;21627;48.216;16.482;2022-12-29T16:09:18;65.33;;;32.20;;
35518;SDS011;21627;48.216;16.482;2022-12-29T16:11:57;67.28;;;32.95;;
35518;SDS011;21627;48.216;16.482;2022-12-29T16:14:37;65.57;;;32.07;;
35518;SDS011;21627;48.216;16.482;2022-12-29T16:17:19;77.63;;;33.53;;
35518;SDS011;21627;48.216;16.482;2022-12-29T16:19:57;80.70;;;32.17;;
35518;SDS011;21627;48.216;16.482;2022-12-29T16:22:42;66.37;;;31.33;;
35518;SDS011;21627;48.216;16.482;2022-12-29T16:27:58;83.73;;;34.40;;
35518;SDS011;21627;48.216;16.482;2022-12-29T16:30:30;101.57;;;31.70;;
35518;SDS011;21627;48.216;16.482;2022-12-29T16:33:02;93.47;;;32.93;;
35518;SDS011;21627;48.216;16.482;2022-12-29T16:40:56;71.37;;;30.30;;
35518;SDS011;21627;48.216;16.482;2022-12-29T16:43:34;83.87;;;31.27;;
35518;SDS011;21627;48.216;16.482;2022-12-29T16:46:29;92.67;;;32.17;;
35518;SDS011;21627;48.216;16.482;2022-12-29T16:48:57;82.75;;;31.13;;
35518;SDS011;21627;48.216;16.482;2022-12-29T16:51:34;63.97;;;31.63;;
35518;SDS011;21627;48.216;16.482;2022-12-29T16:54:03;72.77;;;32.67;;
35518;SDS011;21627;48.216;16.482;2022-12-29T16:56:32;81.40;;;32.70;;
35518;SDS011;21627;48.216;16.482;2022-12-29T16:59:07;90.20;;;33.83;;
35518;SDS011;21627;48.216;16.482;2022-12-29T17:01:55;73.50;;;32.33;;
35518;SDS011;21627;48.216;16.482;2022-12-29T17:04:25;87.03;;;32.10;;
35518;SDS011;21627;48.216;16.482;2022-12-29T17:06:52;78.50;;;33.37;;
35518;SDS011;21627;48.216;16.482;2022-12-29T17:09:20;81.93;;;35.50;;
35518;SDS011;21627;48.216;16.482;2022-12-29T17:11:57;78.40;;;33.87;;
35518;SDS011;21627;48.216;16.482;2022-12-29T17:19:57;100.90;;;33.17;;
35518;SDS011;21627;48.216;16.482;2022-12-29T17:22:40;80.07;;;33.70;;
35518;SDS011;21627;48.216;16.482;2022-12-29T17:25:10;69.10;;;32.53;;
35518;SDS011;21627;48.216;16.482;2022-12-29T17:27:43;68.77;;;30.67;;
35518;SDS011;21627;48.216;16.482;2022-12-29T17:30:25;64.50;;;31.70;;
35518;SDS011;21627;48.216;16.482;2022-12-29T17:35:38;65.23;;;30.43;;
35518;SDS011;21627;48.216;16.482;2022-12-29T17:38:21;67.80;;;33.30;;
35518;SDS011;21627;48.216;16.482;2022-12-29T17:40:54;70.37;;;31.10;;
35518;SDS011;21627;48.216;16.482;2022-12-29T17:43:21;68.10;;;31.57;;
35518;SDS011;21627;48.216;16.482;2022-12-29T17:45:51;70.13;;;30.70;;
35518;SDS011;21627;48.216;16.482;2022-12-29T17:48:24;58.57;;;30.43;;
35518;SDS011;21627;48.216;16.482;2022-12-29T17:50:52;61.80;;;29.70;;
35518;SDS011;21627;48.216;16.482;2022-12-29T17:53:21;62.53;;;30.60;;
35518;SDS011;21627;48.216;16.482;2022-12-29T17:55:55;61.95;;;29.35;;
35518;SDS011;21627;48.216;16.482;2022-12-29T17:58:24;61.20;;;29.80;;
35518;SDS011;21627;48.216;16.482;2022-12-29T18:00:54;65.43;;;29.87;;